createdAt,value
2022-09-17T00:00:55.848Z,24.9
2022-09-17T00:01:57.692Z,24.9
2022-09-17T00:02:59.703Z,24.9
2022-09-17T00:04:01.912Z,24.9
2022-09-17T00:05:03.839Z,24.9
2022-09-17T00:06:05.715Z,24.9
2022-09-17T00:07:07.561Z,24.9
2022-09-17T00:08:09.413Z,24.9
2022-09-17T00:09:11.598Z,24.9
2022-09-17T00:10:13.459Z,24.9
2022-09-17T00:11:15.515Z,24.9
2022-09-17T00:12:17.327Z,24.9
2022-09-17T00:13:18.971Z,24.9
2022-09-17T00:14:20.825Z,24.9
2022-09-17T00:15:22.674Z,24.9
2022-09-17T00:16:24.613Z,24.9
2022-09-17T00:17:26.823Z,24.9
2022-09-17T00:18:28.735Z,24.9
2022-09-17T00:19:30.586Z,24.8
2022-09-17T00:20:32.439Z,24.8
2022-09-17T00:21:34.256Z,24.8
2022-09-17T00:22:36.135Z,24.8
2022-09-17T00:23:37.921Z,24.8
2022-09-17T00:24:40.193Z,24.8
2022-09-17T00:25:42.097Z,24.8
2022-09-17T00:26:44.047Z,24.8
2022-09-17T00:27:45.898Z,24.8
2022-09-17T00:28:47.644Z,24.8
2022-09-17T00:29:49.553Z,24.8
2022-09-17T00:30:51.405Z,24.8
2022-09-17T00:31:53.501Z,24.8
2022-09-17T00:32:55.347Z,24.8
2022-09-17T00:33:57.164Z,24.8
2022-09-17T00:34:59.051Z,24.8
2022-09-17T00:36:00.856Z,24.8
2022-09-17T00:37:02.650Z,24.8
2022-09-17T00:38:04.397Z,24.8
2022-09-17T00:39:05.963Z,24.8
2022-09-17T00:40:08.112Z,24.8
2022-09-17T00:41:10.051Z,24.8
2022-09-17T00:42:12.004Z,24.8
2022-09-17T00:43:13.731Z,24.8
2022-09-17T00:44:15.494Z,24.8
2022-09-17T00:45:17.024Z,24.8
2022-09-17T00:46:18.851Z,24.8
2022-09-17T00:47:20.961Z,24.8
2022-09-17T00:48:22.532Z,24.8
2022-09-17T00:49:24.169Z,24.8
2022-09-17T00:50:25.696Z,24.8
2022-09-17T00:51:27.312Z,24.8
2022-09-17T00:52:29.078Z,24.8
2022-09-17T00:53:30.659Z,24.8
2022-09-17T00:54:32.272Z,24.8
2022-09-17T00:55:34.328Z,24.8
2022-09-17T00:56:35.955Z,24.8
2022-09-17T00:57:37.785Z,24.8
2022-09-17T00:58:41.367Z,24.8
2022-09-17T00:59:43.168Z,24.8
2022-09-17T01:00:44.756Z,24.8
2022-09-17T01:01:46.814Z,24.8
2022-09-17T01:02:48.798Z,24.8
2022-09-17T01:03:50.537Z,24.7
2022-09-17T01:04:52.291Z,24.7
2022-09-17T01:05:53.840Z,24.7
2022-09-17T01:06:55.443Z,24.7
2022-09-17T01:07:57.112Z,24.7
2022-09-17T01:08:58.773Z,24.7
2022-09-17T01:10:00.347Z,24.7
2022-09-17T01:11:02.385Z,24.7
2022-09-17T01:12:04.077Z,24.7
2022-09-17T01:13:05.934Z,24.7
2022-09-17T01:14:07.561Z,24.7
2022-09-17T01:15:09.145Z,24.7
2022-09-17T01:16:10.764Z,24.7
2022-09-17T01:17:12.855Z,24.7
2022-09-17T01:18:14.562Z,24.7
2022-09-17T01:19:16.231Z,24.7
2022-09-17T01:20:17.967Z,24.7
2022-09-17T01:21:19.659Z,24.7
2022-09-17T01:22:21.193Z,24.7
2022-09-17T01:23:22.861Z,24.7
2022-09-17T01:24:24.420Z,24.7
2022-09-17T01:25:26.164Z,24.7
2022-09-17T01:26:28.188Z,24.7
2022-09-17T01:27:29.956Z,24.7
2022-09-17T01:28:31.771Z,24.7
2022-09-17T01:29:33.402Z,24.7
2022-09-17T01:30:34.976Z,24.7
2022-09-17T01:31:36.590Z,24.7
2022-09-17T01:32:38.723Z,24.7
2022-09-17T01:33:40.242Z,24.7
2022-09-17T01:34:41.814Z,24.7
2022-09-17T01:35:43.475Z,24.7
2022-09-17T01:36:45.180Z,24.6
2022-09-17T01:37:46.972Z,24.6
2022-09-17T01:38:48.655Z,24.6
2022-09-17T01:39:50.586Z,24.6
2022-09-17T01:40:52.703Z,24.7
2022-09-17T01:41:54.811Z,24.7
2022-09-17T01:42:56.390Z,24.7
2022-09-17T01:43:58.116Z,24.7
2022-09-17T01:44:59.687Z,24.7
2022-09-17T01:46:01.390Z,24.6
2022-09-17T01:47:03.019Z,24.7
2022-09-17T01:48:04.545Z,24.6
2022-09-17T01:49:06.114Z,24.7
2022-09-17T01:50:07.661Z,24.6
2022-09-17T01:51:09.308Z,24.6
2022-09-17T01:52:10.950Z,24.6
2022-09-17T01:53:12.506Z,24.7
2022-09-17T01:54:14.148Z,24.7
2022-09-17T01:55:15.701Z,24.7
2022-09-17T01:56:17.349Z,24.7
2022-09-17T01:57:19.391Z,24.7
2022-09-17T01:58:20.974Z,24.6
2022-09-17T01:59:22.702Z,24.6
2022-09-17T02:00:24.349Z,24.6
2022-09-17T02:01:26.081Z,24.6
2022-09-17T02:02:28.333Z,24.6
2022-09-17T02:03:30.178Z,24.6
2022-09-17T02:04:31.847Z,24.6
2022-09-17T02:05:33.472Z,24.6
2022-09-17T02:06:35.056Z,24.6
2022-09-17T02:07:36.698Z,24.6
2022-09-17T02:08:38.345Z,24.6
2022-09-17T02:09:39.914Z,24.6
2022-09-17T02:10:41.475Z,24.6
2022-09-17T02:11:43.089Z,24.6
2022-09-17T02:12:45.196Z,24.6
2022-09-17T02:13:47.009Z,24.6
2022-09-17T02:14:48.811Z,24.6
2022-09-17T02:15:50.504Z,24.6
2022-09-17T02:16:52.576Z,24.6
2022-09-17T02:17:54.162Z,24.6
2022-09-17T02:18:55.803Z,24.6
2022-09-17T02:19:57.819Z,24.6
2022-09-17T02:20:59.513Z,24.6
2022-09-17T02:22:01.104Z,24.6
2022-09-17T02:23:02.773Z,24.6
2022-09-17T02:24:04.344Z,24.6
2022-09-17T02:25:05.940Z,24.6
2022-09-17T02:26:07.626Z,24.6
2022-09-17T02:27:09.184Z,24.6
2022-09-17T02:28:11.313Z,24.6
2022-09-17T02:29:12.882Z,24.6
2022-09-17T02:30:14.616Z,24.6
2022-09-17T02:31:16.272Z,24.6
2022-09-17T02:32:18.318Z,24.5
2022-09-17T02:33:19.952Z,24.5
2022-09-17T02:34:21.480Z,24.5
2022-09-17T02:35:23.125Z,24.6
2022-09-17T02:36:24.892Z,24.6
2022-09-17T02:37:26.486Z,24.6
2022-09-17T02:38:28.122Z,24.6
2022-09-17T02:39:29.673Z,24.5
2022-09-17T02:40:31.405Z,24.5
2022-09-17T02:41:33.425Z,24.5
2022-09-17T02:42:35.013Z,24.5
2022-09-17T02:43:37.115Z,24.5
2022-09-17T02:44:38.699Z,24.5
2022-09-17T02:45:40.584Z,24.5
2022-09-17T02:46:42.340Z,24.5
2022-09-17T02:47:44.394Z,24.5
2022-09-17T02:48:46.053Z,24.5
2022-09-17T02:49:47.717Z,24.5
2022-09-17T02:50:49.319Z,24.5
2022-09-17T02:51:50.990Z,24.5
2022-09-17T02:52:52.559Z,24.5
2022-09-17T02:53:54.100Z,24.5
2022-09-17T02:54:55.762Z,24.5
2022-09-17T02:55:57.394Z,24.5
2022-09-17T02:56:58.932Z,24.5
2022-09-17T02:58:00.544Z,24.5
2022-09-17T02:59:02.612Z,24.5
2022-09-17T03:00:04.236Z,24.5
2022-09-17T03:01:06.037Z,24.5
2022-09-17T03:02:08.354Z,24.5
2022-09-17T03:03:10.567Z,24.5
2022-09-17T03:04:12.192Z,24.5
2022-09-17T03:05:13.822Z,24.5
2022-09-17T03:06:15.374Z,24.5
2022-09-17T03:07:16.914Z,24.5
2022-09-17T03:08:18.503Z,24.5
2022-09-17T03:09:20.111Z,24.5
2022-09-17T03:10:21.750Z,24.5
2022-09-17T03:11:23.292Z,24.5
2022-09-17T03:12:25.080Z,24.5
2022-09-17T03:13:26.694Z,24.5
2022-09-17T03:14:28.818Z,24.5
2022-09-17T03:15:30.394Z,24.5
2022-09-17T03:16:32.162Z,24.5
2022-09-17T03:17:34.181Z,24.5
2022-09-17T03:18:35.893Z,24.5
2022-09-17T03:19:37.556Z,24.5
2022-09-17T03:20:39.207Z,24.5
2022-09-17T03:21:40.721Z,24.5
2022-09-17T03:22:42.257Z,24.5
2022-09-17T03:23:43.857Z,24.4
2022-09-17T03:24:45.464Z,24.5
2022-09-17T03:25:47.008Z,24.5
2022-09-17T03:26:48.591Z,24.5
2022-09-17T03:27:50.192Z,24.5
2022-09-17T03:28:51.775Z,24.5
2022-09-17T03:29:53.808Z,24.5
2022-09-17T03:30:55.510Z,24.5
2022-09-17T03:31:57.589Z,24.5
2022-09-17T03:32:59.236Z,24.5
2022-09-17T03:34:00.815Z,24.5
2022-09-17T03:35:02.528Z,24.5
2022-09-17T03:36:04.086Z,24.4
2022-09-17T03:37:05.708Z,24.4
2022-09-17T03:38:07.257Z,24.5
2022-09-17T03:39:08.935Z,24.4
2022-09-17T03:40:10.706Z,24.4
2022-09-17T03:41:12.888Z,24.4
2022-09-17T03:42:14.493Z,24.4
2022-09-17T03:43:16.036Z,24.4
2022-09-17T03:44:17.580Z,24.4
2022-09-17T03:45:19.656Z,24.4
2022-09-17T03:46:21.465Z,24.4
2022-09-17T03:47:23.599Z,24.4
2022-09-17T03:48:25.167Z,24.4
2022-09-17T03:49:26.828Z,24.4
2022-09-17T03:50:28.409Z,24.4
2022-09-17T03:51:30.096Z,24.4
2022-09-17T03:52:31.673Z,24.4
2022-09-17T03:53:33.282Z,24.4
2022-09-17T03:54:35.000Z,24.4
2022-09-17T03:55:36.608Z,24.4
2022-09-17T03:56:38.211Z,24.4
2022-09-17T03:57:39.688Z,24.4
2022-09-17T03:58:41.247Z,24.4
2022-09-17T03:59:43.008Z,24.4
2022-09-17T04:00:45.112Z,24.4
2022-09-17T04:01:46.840Z,24.4
2022-09-17T04:02:49.332Z,24.4
2022-09-17T04:03:51.597Z,24.4
2022-09-17T04:04:53.128Z,24.4
2022-09-17T04:05:54.703Z,24.4
2022-09-17T04:06:56.322Z,24.4
2022-09-17T04:07:58.020Z,24.4
2022-09-17T04:08:59.688Z,24.4
2022-09-17T04:10:01.196Z,24.4
2022-09-17T04:11:02.749Z,24.4
2022-09-17T04:12:04.441Z,24.4
2022-09-17T04:13:06.065Z,24.4
2022-09-17T04:14:07.647Z,24.4
2022-09-17T04:15:09.202Z,24.4
2022-09-17T04:16:11.538Z,24.4
2022-09-17T04:17:13.688Z,24.4
2022-09-17T04:18:15.506Z,24.4
2022-09-17T04:19:20.037Z,24.4
2022-09-17T04:20:21.582Z,24.4
2022-09-17T04:21:23.333Z,24.4
2022-09-17T04:22:24.886Z,24.4
2022-09-17T04:23:26.491Z,24.4
2022-09-17T04:24:28.105Z,24.4
2022-09-17T04:25:29.801Z,24.4
2022-09-17T04:26:31.389Z,24.4
2022-09-17T04:27:32.999Z,24.4
2022-09-17T04:28:34.756Z,24.4
2022-09-17T04:29:36.327Z,24.4
2022-09-17T04:30:38.005Z,24.4
2022-09-17T04:31:40.111Z,24.4
2022-09-17T04:32:42.035Z,24.4
2022-09-17T04:33:43.772Z,24.4
2022-09-17T04:34:45.346Z,24.4
2022-09-17T04:35:46.984Z,24.4
2022-09-17T04:36:48.618Z,24.4
2022-09-17T04:37:50.160Z,24.4
2022-09-17T04:38:51.884Z,24.4
2022-09-17T04:39:53.532Z,24.4
2022-09-17T04:40:55.397Z,24.4
2022-09-17T04:41:56.926Z,24.4
2022-09-17T04:42:58.658Z,24.4
2022-09-17T04:44:00.419Z,24.4
2022-09-17T04:45:01.997Z,24.4
2022-09-17T04:46:03.511Z,24.4
2022-09-17T04:47:06.002Z,24.4
2022-09-17T04:48:07.601Z,24.4
2022-09-17T04:49:09.626Z,24.4
2022-09-17T04:50:11.228Z,24.4
2022-09-17T04:51:12.874Z,24.4
2022-09-17T04:52:14.413Z,24.4
2022-09-17T04:53:16.078Z,24.4
2022-09-17T04:54:17.720Z,24.4
2022-09-17T04:55:19.421Z,24.4
2022-09-17T04:56:21.200Z,24.4
2022-09-17T04:57:22.848Z,24.4
2022-09-17T04:58:24.400Z,24.4
2022-09-17T04:59:26.037Z,24.4
2022-09-17T05:00:27.696Z,24.4
2022-09-17T05:01:29.432Z,24.4
2022-09-17T05:02:32.042Z,24.4
2022-09-17T05:03:34.165Z,24.4
2022-09-17T05:04:35.921Z,24.4
2022-09-17T05:05:37.721Z,24.4
2022-09-17T05:06:39.313Z,24.4
2022-09-17T05:07:40.904Z,24.4
2022-09-17T05:08:42.537Z,24.4
2022-09-17T05:09:44.106Z,24.4
2022-09-17T05:10:45.720Z,24.4
2022-09-17T05:11:47.363Z,24.4
2022-09-17T05:12:49.143Z,24.4
2022-09-17T05:13:50.771Z,24.4
2022-09-17T05:14:52.477Z,24.4
2022-09-17T05:15:54.111Z,24.4
2022-09-17T05:16:55.952Z,24.4
2022-09-17T05:17:58.099Z,24.4
2022-09-17T05:18:59.767Z,24.4
2022-09-17T05:20:01.823Z,24.4
2022-09-17T05:21:03.404Z,24.4
2022-09-17T05:22:04.940Z,24.4
2022-09-17T05:23:06.558Z,24.4
2022-09-17T05:24:08.192Z,24.4
2022-09-17T05:25:09.839Z,24.4
2022-09-17T05:26:11.476Z,24.4
2022-09-17T05:27:13.152Z,24.4
2022-09-17T05:28:14.903Z,24.4
2022-09-17T05:29:16.465Z,24.4
2022-09-17T05:30:18.196Z,24.4
2022-09-17T05:31:19.744Z,24.4
2022-09-17T05:32:21.857Z,24.4
2022-09-17T05:33:23.895Z,24.4
2022-09-17T05:34:25.516Z,24.4
2022-09-17T05:35:27.233Z,24.4
2022-09-17T05:36:28.870Z,24.4
2022-09-17T05:37:30.513Z,24.4
2022-09-17T05:38:32.155Z,24.4
2022-09-17T05:39:33.802Z,24.4
2022-09-17T05:40:35.552Z,24.4
2022-09-17T05:41:37.790Z,24.4
2022-09-17T05:42:39.325Z,24.4
2022-09-17T05:43:40.887Z,24.4
2022-09-17T05:44:42.480Z,24.4
2022-09-17T05:45:44.019Z,24.4
2022-09-17T05:46:45.780Z,24.4
2022-09-17T05:47:47.808Z,24.4
2022-09-17T07:04:19.786Z,22.8
2022-09-17T07:05:21.765Z,23.2
2022-09-17T07:06:23.375Z,23.4
2022-09-17T07:07:25.004Z,23.5
2022-09-17T07:08:26.610Z,23.6
2022-09-17T07:09:28.246Z,23.7
2022-09-17T07:10:29.782Z,23.8
2022-09-17T07:11:31.353Z,23.9
2022-09-17T07:12:33.188Z,23.9
2022-09-17T07:13:34.720Z,24
2022-09-17T07:14:36.266Z,24
2022-09-17T07:15:37.936Z,24
2022-09-17T07:16:39.905Z,24.1
2022-09-17T07:17:41.479Z,24.1
2022-09-17T07:18:43.058Z,24.1
2022-09-17T07:19:44.710Z,24.1
2022-09-17T07:20:46.860Z,24.1
2022-09-17T07:21:48.566Z,24.1
2022-09-17T07:22:50.209Z,24.2
2022-09-17T07:23:51.848Z,24.2
2022-09-17T07:24:53.481Z,24.2
2022-09-17T07:25:55.026Z,24.2
2022-09-17T07:26:56.616Z,24.2
2022-09-17T07:27:58.251Z,24.2
2022-09-17T07:28:59.920Z,24.3
2022-09-17T07:30:02.081Z,24.3
2022-09-17T07:31:03.680Z,24.3
2022-09-17T07:32:05.611Z,24.3
2022-09-17T07:33:07.200Z,24.3
2022-09-17T07:34:08.849Z,24.4
2022-09-17T07:35:10.597Z,24.4
2022-09-17T07:36:12.772Z,24.4
2022-09-17T07:37:14.446Z,24.4
2022-09-17T07:38:16.018Z,24.5
2022-09-17T07:39:17.652Z,24.5
2022-09-17T07:40:19.347Z,24.5
2022-09-17T07:41:24.493Z,24.5
2022-09-17T07:42:26.035Z,24.6
2022-09-17T07:43:27.663Z,24.5
2022-09-17T07:44:29.247Z,24.6
2022-09-17T07:45:30.870Z,24.6
2022-09-17T07:46:32.441Z,24.6
2022-09-17T07:47:34.452Z,24.6
2022-09-17T07:48:36.061Z,24.6
2022-09-17T07:49:37.657Z,24.6
2022-09-17T07:50:39.343Z,24.6
2022-09-17T07:51:41.584Z,24.6
2022-09-17T07:52:43.141Z,24.6
2022-09-17T07:53:44.685Z,24.7
2022-09-17T07:54:46.379Z,24.7
2022-09-17T07:55:48.026Z,24.7
2022-09-17T07:56:49.623Z,24.7
2022-09-17T07:57:51.264Z,24.7
2022-09-17T07:58:52.778Z,24.7
2022-09-17T07:59:54.398Z,24.7
2022-09-17T08:00:55.956Z,24.7
2022-09-17T08:01:57.670Z,24.7
2022-09-17T08:03:00.191Z,24.7
2022-09-17T08:04:02.413Z,24.7
2022-09-17T08:05:04.181Z,24.7
2022-09-17T08:06:05.916Z,24.7
2022-09-17T08:07:08.064Z,24.7
2022-09-17T08:08:09.607Z,24.7
2022-09-17T08:09:15.450Z,24.7
2022-09-17T08:10:16.978Z,24.7
2022-09-17T08:11:32.713Z,24.7
2022-09-17T08:12:58.382Z,24.8
2022-09-17T08:14:00.117Z,24.8
2022-09-17T08:15:02.284Z,24.8
2022-09-17T08:16:04.065Z,24.8
2022-09-17T08:17:05.981Z,24.8
2022-09-17T08:18:07.514Z,24.8
2022-09-17T08:19:09.103Z,24.8
2022-09-17T08:20:10.711Z,24.7
2022-09-17T08:21:12.518Z,24.8
2022-09-17T08:22:14.717Z,24.8
2022-09-17T08:23:16.272Z,24.8
2022-09-17T08:24:17.925Z,24.8
2022-09-17T08:25:19.509Z,24.8
2022-09-17T08:26:21.201Z,24.8
2022-09-17T08:27:22.847Z,24.8
2022-09-17T08:28:24.437Z,24.8
2022-09-17T08:29:26.045Z,24.8
2022-09-17T08:30:27.632Z,24.8
2022-09-17T08:31:29.264Z,24.8
2022-09-17T08:32:31.512Z,24.8
2022-09-17T08:33:33.074Z,24.8
2022-09-17T08:34:34.610Z,24.8
2022-09-17T08:35:36.284Z,24.8
2022-09-17T08:36:38.592Z,24.8
2022-09-17T08:37:40.806Z,24.8
2022-09-17T08:38:42.487Z,24.8
2022-09-17T08:39:44.122Z,24.8
2022-09-17T08:40:45.794Z,24.8
2022-09-17T08:41:47.470Z,24.8
2022-09-17T08:42:49.112Z,24.8
2022-09-17T08:43:50.744Z,24.8
2022-09-17T08:44:53.136Z,24.8
2022-09-17T08:46:02.410Z,24.8
2022-09-17T08:47:04.216Z,24.8
2022-09-17T08:48:05.842Z,24.8
2022-09-17T08:49:07.476Z,24.8
2022-09-17T08:50:09.020Z,24.8
2022-09-17T08:51:10.570Z,24.8
2022-09-17T08:52:12.382Z,24.8
2022-09-17T08:53:14.522Z,24.8
2022-09-17T08:54:16.188Z,24.8
2022-09-17T08:55:17.728Z,24.8
2022-09-17T08:56:19.275Z,24.8
2022-09-17T08:57:20.903Z,24.8
2022-09-17T08:58:22.540Z,24.8
2022-09-17T08:59:24.088Z,24.8
2022-09-17T09:00:25.627Z,24.8
2022-09-17T09:01:27.215Z,24.8
2022-09-17T09:02:29.306Z,24.8
2022-09-17T09:03:31.698Z,24.8
2022-09-17T09:04:33.278Z,24.8
2022-09-17T09:05:34.866Z,24.8
2022-09-17T09:06:36.480Z,24.8
2022-09-17T09:07:38.142Z,24.8
2022-09-17T09:08:40.397Z,24.8
2022-09-17T09:09:42.085Z,24.8
2022-09-17T09:10:43.682Z,24.8
2022-09-17T09:11:45.213Z,24.8
2022-09-17T09:12:46.953Z,24.8
2022-09-17T09:13:48.593Z,24.8
2022-09-17T09:14:50.214Z,24.8
2022-09-17T09:15:51.883Z,24.8
2022-09-17T09:16:53.799Z,24.8
2022-09-17T09:17:55.384Z,24.7
2022-09-17T09:18:56.972Z,24.7
2022-09-17T09:19:58.585Z,24.7
2022-09-17T09:21:00.345Z,24.7
2022-09-17T09:22:02.042Z,24.7
2022-09-17T09:23:03.712Z,24.7
2022-09-17T09:24:05.828Z,24.7
2022-09-17T09:25:07.431Z,24.7
2022-09-17T09:26:09.306Z,24.7
2022-09-17T09:27:11.024Z,24.7
2022-09-17T09:28:12.664Z,24.6
2022-09-17T09:29:14.312Z,24.6
2022-09-17T09:30:15.946Z,24.6
2022-09-17T09:31:17.545Z,24.6
2022-09-17T09:32:19.494Z,24.6
2022-09-17T09:33:21.139Z,24.7
2022-09-17T09:34:22.737Z,24.7
2022-09-17T09:35:24.272Z,24.7
2022-09-17T09:36:25.817Z,24.7
2022-09-17T09:37:27.422Z,24.7
2022-09-17T09:38:29.111Z,24.7
2022-09-17T09:39:34.677Z,24.7
2022-09-17T09:40:47.754Z,24.7
2022-09-17T09:41:49.305Z,24.7
2022-09-17T09:42:51.008Z,24.7
2022-09-17T09:44:03.550Z,24.7
2022-09-17T09:45:07.213Z,24.7
2022-09-17T09:46:08.902Z,24.7
2022-09-17T09:47:11.023Z,24.7
2022-09-17T09:48:12.683Z,24.7
2022-09-17T09:49:14.373Z,24.7
2022-09-17T09:50:15.979Z,24.7
2022-09-17T09:51:17.627Z,24.7
2022-09-17T09:52:19.205Z,24.7
2022-09-17T09:53:20.801Z,24.7
2022-09-17T09:54:22.482Z,24.7
2022-09-17T09:55:26.847Z,24.7
2022-09-17T09:56:28.644Z,24.7
2022-09-17T09:57:30.288Z,24.7
2022-09-17T09:58:31.974Z,24.6
2022-09-17T09:59:33.562Z,24.7
2022-09-17T10:00:35.074Z,24.7
2022-09-17T10:01:36.705Z,24.7
2022-09-17T10:02:39.119Z,24.7
2022-09-17T10:03:41.246Z,24.7
2022-09-17T10:04:42.813Z,24.7
2022-09-17T10:05:44.460Z,24.7
2022-09-17T10:06:46.188Z,24.7
2022-09-17T10:07:47.895Z,24.7
2022-09-17T10:08:49.514Z,24.8
2022-09-17T10:09:51.457Z,24.8
2022-09-17T10:10:53.728Z,24.8
2022-09-17T10:11:55.523Z,24.8
2022-09-17T10:12:57.151Z,24.8
2022-09-17T10:13:58.730Z,24.8
2022-09-17T10:15:00.542Z,24.8
2022-09-17T10:16:02.230Z,24.8
2022-09-17T10:17:04.171Z,24.7
2022-09-17T10:18:05.737Z,24.7
2022-09-17T10:19:07.339Z,24.7
2022-09-17T10:20:08.966Z,24.7
2022-09-17T10:21:10.661Z,24.7
2022-09-17T10:22:12.246Z,24.7
2022-09-17T10:23:13.849Z,24.6
2022-09-17T10:24:15.394Z,24.6
2022-09-17T10:25:17.204Z,24.6
2022-09-17T10:26:19.353Z,24.6
2022-09-17T10:27:20.885Z,24.6
2022-09-17T10:28:22.521Z,24.6
2022-09-17T10:29:24.128Z,24.6
2022-09-17T10:30:25.674Z,24.6
2022-09-17T10:31:27.310Z,24.6
2022-09-17T10:32:29.286Z,24.6
2022-09-17T10:33:30.925Z,24.6
2022-09-17T10:34:32.455Z,24.6
2022-09-17T10:35:33.998Z,24.6
2022-09-17T10:36:37.882Z,24.6
2022-09-17T10:37:39.802Z,24.6
2022-09-17T10:38:41.489Z,24.6
2022-09-17T10:39:43.014Z,24.6
2022-09-17T10:40:44.700Z,24.6
2022-09-17T10:41:49.662Z,24.6
2022-09-17T10:42:51.325Z,24.6
2022-09-17T10:43:52.971Z,24.6
2022-09-17T10:44:54.575Z,24.6
2022-09-17T10:45:56.259Z,24.6
2022-09-17T10:46:57.822Z,24.6
2022-09-17T10:47:59.843Z,24.6
2022-09-17T10:49:01.660Z,24.6
2022-09-17T10:50:03.315Z,24.6
2022-09-17T10:51:04.943Z,24.6
2022-09-17T10:52:06.481Z,24.6
2022-09-17T10:53:08.174Z,24.6
2022-09-17T10:54:09.738Z,24.6
2022-09-17T10:55:11.518Z,24.6
2022-09-17T10:56:13.360Z,24.5
2022-09-17T10:57:15.530Z,24.5
2022-09-17T10:58:17.164Z,24.6
2022-09-17T10:59:18.704Z,24.6
2022-09-17T11:00:20.324Z,24.6
2022-09-17T11:01:22.044Z,24.5
2022-09-17T11:02:24.096Z,24.5
2022-09-17T11:03:26.361Z,24.5
2022-09-17T11:04:28.116Z,24.5
2022-09-17T11:05:29.730Z,24.6
2022-09-17T11:06:31.516Z,24.5
2022-09-17T11:07:33.067Z,24.5
2022-09-17T11:08:34.791Z,24.5
2022-09-17T11:09:36.511Z,24.5
2022-09-17T11:10:38.143Z,24.5
2022-09-17T11:11:39.811Z,24.5
2022-09-17T11:12:42.006Z,24.5
2022-09-17T11:13:43.629Z,24.5
2022-09-17T11:14:45.275Z,24.5
2022-09-17T11:15:50.861Z,24.5
2022-09-17T11:16:55.126Z,24.5
2022-09-17T11:17:56.752Z,24.6
2022-09-17T11:18:58.432Z,24.5
2022-09-17T11:20:00.122Z,24.5
2022-09-17T11:21:01.733Z,24.5
2022-09-17T11:22:03.390Z,24.5
2022-09-17T11:23:05.086Z,24.6
2022-09-17T11:24:06.743Z,24.6
2022-09-17T11:25:08.288Z,24.6
2022-09-17T11:26:09.821Z,24.6
2022-09-17T11:27:11.546Z,24.5
2022-09-17T11:28:13.806Z,24.5
2022-09-17T11:29:15.473Z,24.5
2022-09-17T11:30:17.230Z,24.5
2022-09-17T11:31:23.338Z,24.5
2022-09-17T11:32:26.667Z,24.5
2022-09-17T11:33:28.276Z,24.5
2022-09-17T11:34:29.913Z,24.5
2022-09-17T11:35:31.440Z,24.5
2022-09-17T11:36:32.975Z,24.5
2022-09-17T11:37:34.643Z,24.5
2022-09-17T11:38:36.320Z,24.5
2022-09-17T11:39:37.934Z,24.5
2022-09-17T11:40:39.596Z,24.5
2022-09-17T11:41:41.676Z,24.5
2022-09-17T11:42:43.397Z,24.5
2022-09-17T11:43:45.579Z,24.5
2022-09-17T11:44:47.240Z,24.5
2022-09-17T11:45:51.547Z,24.5
2022-09-17T11:46:53.112Z,24.5
2022-09-17T11:47:55.106Z,24.5
2022-09-17T11:48:56.644Z,24.5
2022-09-17T11:49:58.356Z,24.5
2022-09-17T11:50:59.920Z,24.5
2022-09-17T11:52:01.469Z,24.5
2022-09-17T11:53:03.003Z,24.5
2022-09-17T11:54:04.760Z,24.5
2022-09-17T11:55:06.517Z,24.5
2022-09-17T11:56:08.092Z,24.5
2022-09-17T11:57:09.955Z,24.5
2022-09-17T11:58:11.719Z,24.5
2022-09-17T11:59:13.845Z,24.5
2022-09-17T12:00:15.547Z,24.6
2022-09-17T12:01:17.737Z,24.5
2022-09-17T12:02:19.452Z,24.5
2022-09-17T12:03:21.593Z,24.5
2022-09-17T12:04:23.605Z,24.5
2022-09-17T12:05:25.249Z,24.5
2022-09-17T12:06:27.077Z,24.5
2022-09-17T12:07:28.695Z,24.5
2022-09-17T12:08:30.262Z,24.5
2022-09-17T12:09:31.848Z,24.5
2022-09-17T12:10:33.475Z,24.5
2022-09-17T12:11:35.019Z,24.5
2022-09-17T12:12:49.468Z,24.5
2022-09-17T12:13:52.518Z,24.5
2022-09-17T12:14:54.697Z,24.6
2022-09-17T12:15:56.387Z,24.6
2022-09-17T12:16:58.399Z,24.6
2022-09-17T12:18:20.455Z,24.6
2022-09-17T12:19:35.278Z,24.6
2022-09-17T12:20:36.819Z,24.6
2022-09-17T12:21:38.359Z,24.6
2022-09-17T12:22:40.509Z,24.6
2022-09-17T12:23:42.275Z,24.6
2022-09-17T12:24:43.875Z,24.6
2022-09-17T12:25:45.505Z,24.6
2022-09-17T12:26:47.046Z,24.6
2022-09-17T12:27:48.706Z,24.6
2022-09-17T12:28:50.493Z,24.6
2022-09-17T12:29:52.145Z,24.6
2022-09-17T12:31:02.228Z,24.6
2022-09-17T12:32:04.239Z,24.6
2022-09-17T12:33:05.813Z,24.6
2022-09-17T12:34:07.373Z,24.6
2022-09-17T12:35:09.023Z,24.6
2022-09-17T12:36:10.731Z,24.6
2022-09-17T12:37:12.282Z,24.5
2022-09-17T12:38:13.882Z,24.5
2022-09-17T12:39:15.500Z,24.5
2022-09-17T12:40:17.250Z,24.5
2022-09-17T12:41:19.353Z,24.5
2022-09-17T12:42:20.893Z,24.5
2022-09-17T12:43:22.432Z,24.5
2022-09-17T12:44:23.964Z,24.5
2022-09-17T12:45:25.679Z,24.5
2022-09-17T12:46:27.926Z,24.5
2022-09-17T12:47:29.940Z,24.5
2022-09-17T12:48:31.542Z,24.5
2022-09-17T12:49:33.209Z,24.5
2022-09-17T12:50:34.830Z,24.5
2022-09-17T12:51:36.368Z,24.5
2022-09-17T12:52:38.012Z,24.5
2022-09-17T12:53:39.669Z,24.5
2022-09-17T12:54:45.093Z,24.5
2022-09-17T12:55:47.212Z,24.5
2022-09-17T12:56:48.741Z,24.5
2022-09-17T12:57:50.285Z,24.4
2022-09-17T12:58:51.854Z,24.4
2022-09-17T12:59:53.422Z,24.4
2022-09-17T13:00:55.230Z,24.4
2022-09-17T13:01:57.784Z,24.4
2022-09-17T13:02:59.656Z,24.4
2022-09-17T13:04:01.192Z,24.4
2022-09-17T13:05:02.720Z,24.4
2022-09-17T13:06:04.568Z,24.4
2022-09-17T13:07:06.293Z,24.5
2022-09-17T13:08:08.017Z,24.5
2022-09-17T13:09:09.707Z,24.5
2022-09-17T13:10:11.262Z,24.4
2022-09-17T13:11:12.805Z,24.5
2022-09-17T13:12:14.424Z,24.5
2022-09-17T13:13:16.045Z,24.5
2022-09-17T13:14:17.715Z,24.5
2022-09-17T13:16:22.078Z,24.5
2022-09-17T13:17:24.609Z,24.5
2022-09-17T13:18:27.572Z,24.5
2022-09-17T13:19:29.459Z,24.5
2022-09-17T13:20:31.089Z,24.5
2022-09-17T13:21:32.769Z,24.4
2022-09-17T13:22:34.373Z,24.4
2022-09-17T13:23:36.125Z,24.4
2022-09-17T13:24:37.728Z,24.4
2022-09-17T13:25:39.359Z,24.4
2022-09-17T13:26:41.034Z,24.4
2022-09-17T13:27:42.652Z,24.4
2022-09-17T13:28:47.167Z,24.4
2022-09-17T13:29:49.578Z,24.4
2022-09-17T13:30:51.119Z,24.4
2022-09-17T13:31:52.781Z,24.4
2022-09-17T13:32:54.990Z,24.4
2022-09-17T13:33:56.717Z,24.4
2022-09-17T13:34:58.499Z,24.4
2022-09-17T13:36:00.267Z,24.4
2022-09-17T13:37:01.808Z,24.4
2022-09-17T13:38:03.382Z,24.4
2022-09-17T13:39:04.956Z,24.4
2022-09-17T13:40:06.745Z,24.4
2022-09-17T13:41:08.878Z,24.4
2022-09-17T13:42:10.412Z,24.4
2022-09-17T13:43:12.040Z,24.4
2022-09-17T13:44:13.854Z,24.4
2022-09-17T13:45:15.435Z,24.4
2022-09-17T13:46:17.151Z,24.4
2022-09-17T13:47:19.303Z,24.4
2022-09-17T13:48:21.444Z,24.4
2022-09-17T13:49:23.269Z,24.4
2022-09-17T13:50:24.938Z,24.4
2022-09-17T13:51:26.586Z,24.4
2022-09-17T13:52:30.846Z,24.4
2022-09-17T13:53:32.498Z,24.4
2022-09-17T13:54:34.100Z,24.4
2022-09-17T13:55:35.754Z,24.4
2022-09-17T13:56:37.346Z,24.4
2022-09-17T13:57:39.014Z,24.4
2022-09-17T13:58:40.614Z,24.4
2022-09-17T13:59:42.148Z,24.4
2022-09-17T14:00:43.777Z,24.4
2022-09-17T14:01:45.764Z,24.4
2022-09-17T14:02:47.598Z,24.4
2022-09-17T14:03:50.217Z,24.4
2022-09-17T14:04:51.756Z,24.4
2022-09-17T14:05:53.329Z,24.4
2022-09-17T14:06:54.978Z,24.4
2022-09-17T14:07:56.610Z,24.4
2022-09-17T14:08:58.238Z,24.4
2022-09-17T14:09:59.990Z,24.4
2022-09-17T14:11:01.729Z,24.4
2022-09-17T14:12:03.307Z,24.4
2022-09-17T14:13:04.965Z,24.4
2022-09-17T14:14:09.526Z,24.4
2022-09-17T14:15:11.074Z,24.4
2022-09-17T14:16:12.728Z,24.4
2022-09-17T14:17:14.677Z,24.4
2022-09-17T14:18:16.344Z,24.4
2022-09-17T14:19:18.614Z,24.4
2022-09-17T14:20:20.551Z,24.4
2022-09-17T14:21:22.091Z,24.4
2022-09-17T14:22:23.772Z,24.4
2022-09-17T14:23:25.312Z,24.4
2022-09-17T14:24:26.887Z,24.4
2022-09-17T14:25:28.515Z,24.4
2022-09-17T14:26:30.315Z,24.4
2022-09-17T14:27:31.904Z,24.4
2022-09-17T14:28:33.475Z,24.3
2022-09-17T14:29:35.052Z,24.3
2022-09-17T14:30:36.705Z,24.3
2022-09-17T14:31:38.362Z,24.4
2022-09-17T14:32:40.490Z,24.3
2022-09-17T14:33:42.199Z,24.3
2022-09-17T14:34:44.458Z,24.3
2022-09-17T14:35:46.100Z,24.3
2022-09-17T14:36:47.845Z,24.3
2022-09-17T14:37:49.447Z,24.3
2022-09-17T14:38:50.990Z,24.3
2022-09-17T14:39:52.630Z,24.3
2022-09-17T14:40:54.736Z,24.3
2022-09-17T14:41:56.590Z,24.3
2022-09-17T14:42:58.233Z,24.3
2022-09-17T14:43:59.932Z,24.3
2022-09-17T14:45:04.596Z,24.3
2022-09-17T14:46:06.437Z,24.3
2022-09-17T14:47:08.450Z,24.3
2022-09-17T14:48:10.471Z,24.3
2022-09-17T14:49:12.272Z,24.3
2022-09-17T14:50:14.391Z,24.3
2022-09-17T14:51:16.018Z,24.3
2022-09-17T14:52:17.701Z,24.3
2022-09-17T14:53:19.324Z,24.3
2022-09-17T14:54:20.969Z,24.3
2022-09-17T14:55:22.613Z,24.3
2022-09-17T14:56:24.307Z,24.3
2022-09-17T14:57:25.883Z,24.3
2022-09-17T14:58:27.476Z,24.3
2022-09-17T14:59:29.085Z,24.3
2022-09-17T15:00:30.683Z,24.3
2022-09-17T15:01:32.312Z,24.3